Time;durP1;ratioP1;P1;durP2;ratioP2;P2;SDS_P1;SDS_P2;PMS_P1;PMS_P2;Temp;Humidity;BMP_temperature;BMP_pressure;BME280_temperature;BME280_humidity;BME280_pressure;Samples;Min_cycle;Max_cycle;Signal;HPM_P1;HPM_P2
2023/01/28 07:00:09;;;;;;;;;22.00;20.00;;;;;;;;6275121;22;46595;31
2023/01/28 07:02:34;;;;;;;;;28.00;24.67;;;;;;;;6303220;22;45248;-62
2023/01/28 07:04:59;;;;;;;;;26.00;23.00;;;;;;;;6305249;22;45451;-62
2023/01/28 07:07:25;;;;;;;;;28.33;23.33;;;;;;;;6308279;22;45668;-62
2023/01/28 07:09:50;;;;;;;;;26.75;20.25;;;;;;;;6307406;22;45343;-62
2023/01/28 07:12:15;;;;;;;;;24.50;22.00;;;;;;;;6279662;22;45469;-63
2023/01/28 07:14:41;;;;;;;;;17.67;17.67;;;;;;;;6310308;22;46265;-62
2023/01/28 07:17:06;;;;;;;;;32.25;24.50;;;;;;;;6309278;22;45393;-62
2023/01/28 07:19:31;;;;;;;;;30.67;19.00;;;;;;;;6310443;22;45322;-62
2023/01/28 07:21:59;;;;;;;;;19.67;19.00;;;;;;;;6308516;22;45238;-62
2023/01/28 07:24:24;;;;;;;;;23.67;22.33;;;;;;;;6306792;22;46894;-62
2023/01/28 07:26:50;;;;;;;;;28.33;24.33;;;;;;;;6307298;22;45413;-63
2023/01/28 07:29:15;;;;;;;;;27.75;23.75;;;;;;;;6280550;22;45269;-62
2023/01/28 07:31:41;;;;;;;;;27.00;22.75;;;;;;;;6308118;22;45472;-62
2023/01/28 07:34:07;;;;;;;;;34.67;23.33;;;;;;;;6306242;22;46022;-63
2023/01/28 07:36:32;;;;;;;;;30.67;25.00;;;;;;;;6307576;22;45442;-63
2023/01/28 07:38:58;;;;;;;;;21.00;20.67;;;;;;;;6307355;22;45566;-62
2023/01/28 07:41:23;;;;;;;;;29.00;21.33;;;;;;;;6307888;22;45302;-63
2023/01/28 07:43:48;;;;;;;;;29.75;24.50;;;;;;;;6307574;22;46266;-62
2023/01/28 07:46:13;;;;;;;;;32.33;24.67;;;;;;;;6308155;22;45440;-63
2023/01/28 07:48:38;;;;;;;;;30.00;23.75;;;;;;;;6280495;22;45288;-63
2023/01/28 07:51:04;;;;;;;;;25.25;21.50;;;;;;;;6307009;22;45505;-62
2023/01/28 07:53:29;;;;;;;;;31.33;23.67;;;;;;;;6308437;22;45254;-63
2023/01/28 07:55:59;;;;;;;;;22.67;16.67;;;;;;;;6306721;22;45369;-62
2023/01/28 07:58:24;;;;;;;;;23.67;21.33;;;;;;;;6307821;22;45376;-64
2023/01/28 08:00:49;;;;;;;;;23.33;22.33;;;;;;;;6316659;22;45329;-62
2023/01/28 08:03:14;;;;;;;;;25.67;22.33;;;;;;;;6339172;22;45376;-62
2023/01/28 08:05:42;;;;;;;;;25.33;24.33;;;;;;;;6339738;22;45372;-62
2023/01/28 08:08:08;;;;;;;;;35.67;25.33;;;;;;;;6337609;22;45199;-62
2023/01/28 08:10:34;;;;;;;;;33.33;21.33;;;;;;;;6338370;22;45284;-63
2023/01/28 08:12:59;;;;;;;;;42.00;27.75;;;;;;;;6338561;22;45905;-62
2023/01/28 08:15:24;;;;;;;;;30.50;23.25;;;;;;;;6339154;22;45330;-62
2023/01/28 08:17:50;;;;;;;;;28.00;25.75;;;;;;;;6339777;22;45374;-63
2023/01/28 08:20:15;;;;;;;;;31.25;24.50;;;;;;;;6339672;22;45349;-62
2023/01/28 08:22:41;;;;;;;;;27.25;23.50;;;;;;;;6338024;22;46120;-63
2023/01/28 08:25:06;;;;;;;;;26.33;20.33;;;;;;;;6338976;22;45333;-63
2023/01/28 08:27:31;;;;;;;;;31.00;21.75;;;;;;;;6339119;22;45333;-63
2023/01/28 08:29:56;;;;;;;;;28.00;26.00;;;;;;;;6339143;22;45576;-63
2023/01/28 08:32:22;;;;;;;;;35.33;23.00;;;;;;;;6339049;22;46068;-62
2023/01/28 08:34:47;;;;;;;;;36.50;28.00;;;;;;;;6339738;22;45329;-63
2023/01/28 08:37:12;;;;;;;;;31.00;26.00;;;;;;;;6339471;22;45356;-63
2023/01/28 08:39:37;;;;;;;;;30.33;27.33;;;;;;;;6337780;22;45420;-63
2023/01/28 08:42:04;;;;;;;;;32.00;25.67;;;;;;;;6339063;22;45385;-63
2023/01/28 08:44:29;;;;;;;;;27.00;24.67;;;;;;;;6339410;22;45362;-62
2023/01/28 08:46:54;;;;;;;;;24.00;22.67;;;;;;;;6310516;22;45259;-63
2023/01/28 08:49:21;;;;;;;;;34.67;26.67;;;;;;;;6339248;22;45352;-63
2023/01/28 08:51:46;;;;;;;;;30.33;23.67;;;;;;;;6339180;22;47060;-63
2023/01/28 08:54:11;;;;;;;;;35.33;24.67;;;;;;;;6337796;22;45126;-63
2023/01/28 08:56:37;;;;;;;;;37.00;24.33;;;;;;;;6339418;22;45310;-63
2023/01/28 08:59:03;;;;;;;;;28.67;27.00;;;;;;;;6338592;22;45381;-63
2023/01/28 09:01:28;;;;;;;;;33.33;23.67;;;;;;;;6338184;22;46171;-63
2023/01/28 09:03:53;;;;;;;;;27.67;22.00;;;;;;;;6338736;22;45350;-63
2023/01/28 09:06:18;;;;;;;;;33.33;27.00;;;;;;;;6339112;22;45243;-63
2023/01/28 09:08:43;;;;;;;;;31.67;25.67;;;;;;;;6338083;22;45277;-62
2023/01/28 09:11:09;;;;;;;;;26.33;22.00;;;;;;;;6337002;22;46389;-63
2023/01/28 09:13:34;;;;;;;;;30.67;26.33;;;;;;;;6338802;22;45262;-63
2023/01/28 09:15:59;;;;;;;;;28.33;24.67;;;;;;;;6334678;22;45464;-63
2023/01/28 09:18:24;;;;;;;;;28.67;26.00;;;;;;;;6332582;22;45256;-63
2023/01/28 09:20:50;;;;;;;;;18.00;15.00;;;;;;;;6335872;22;46054;-63
2023/01/28 09:23:15;;;;;;;;;33.33;25.67;;;;;;;;6336356;22;45402;-63
2023/01/28 09:25:40;;;;;;;;;32.67;23.33;;;;;;;;6337979;22;45274;-63
2023/01/28 09:28:06;;;;;;;;;22.67;18.67;;;;;;;;6337466;22;45742;-62
2023/01/28 09:30:31;;;;;;;;;38.33;26.00;;;;;;;;6338040;22;46197;-63
2023/01/28 09:32:59;;;;;;;;;36.33;24.67;;;;;;;;6335981;22;45334;-64
2023/01/28 09:35:25;;;;;;;;;31.00;23.00;;;;;;;;6338118;22;45400;-63
2023/01/28 09:37:50;;;;;;;;;31.00;24.67;;;;;;;;6336847;22;45716;-63
2023/01/28 09:40:18;;;;;;;;;37.50;29.00;;;;;;;;6337564;22;46968;-63
2023/01/28 09:42:43;;;;;;;;;34.00;25.00;;;;;;;;6338116;22;45279;-63
2023/01/28 09:45:15;;;;;;;;;31.67;24.00;;;;;;;;6338188;22;45278;-63
2023/01/28 09:47:40;;;;;;;;;25.67;22.33;;;;;;;;6337522;22;45433;-63
2023/01/28 09:50:07;;;;;;;;;31.67;24.67;;;;;;;;6336818;22;46993;-62
2023/01/28 09:52:37;;;;;;;;;31.00;23.33;;;;;;;;6338563;22;45302;-63
2023/01/28 09:55:06;;;;;;;;;25.33;22.67;;;;;;;;6336798;22;45329;-62
2023/01/28 09:57:40;;;;;;;;;35.33;22.00;;;;;;;;6337037;22;45592;-62
2023/01/28 10:00:16;;;;;;;;;36.33;24.33;;;;;;;;6337103;22;45325;-62
2023/01/28 10:02:58;;;;;;;;;33.00;24.75;;;;;;;;6307004;22;45248;-62
2023/01/28 10:05:24;;;;;;;;;28.50;20.50;;;;;;;;6306169;22;45286;-62
2023/01/28 10:07:52;;;;;;;;;31.67;24.67;;;;;;;;6307219;22;45652;-61
2023/01/28 10:10:38;;;;;;;;;23.67;21.33;;;;;;;;6306073;22;45394;-62
2023/01/28 10:13:09;;;;;;;;;21.67;19.00;;;;;;;;6304804;22;45279;-63
2023/01/28 10:15:45;;;;;;;;;17.33;14.67;;;;;;;;6304632;22;45610;-62
2023/01/28 10:18:12;;;;;;;;;28.00;22.75;;;;;;;;6304077;22;45323;-62
2023/01/28 10:20:42;;;;;;;;;26.67;24.33;;;;;;;;6304964;22;45309;-63
2023/01/28 10:23:13;;;;;;;;;32.33;23.33;;;;;;;;6304421;22;45338;-62
2023/01/28 10:25:40;;;;;;;;;24.67;20.67;;;;;;;;6305356;22;45297;-62
2023/01/28 10:28:13;;;;;;;;;24.67;22.67;;;;;;;;6306073;22;45487;-62
2023/01/28 10:30:41;;;;;;;;;25.00;23.00;;;;;;;;6306323;22;45280;-61
2023/01/28 10:33:15;;;;;;;;;26.00;22.33;;;;;;;;6306838;22;45308;-61
2023/01/28 10:35:41;;;;;;;;;31.25;24.75;;;;;;;;6308268;22;45303;-62
2023/01/28 10:38:08;;;;;;;;;30.33;25.00;;;;;;;;6306904;22;45299;-61
2023/01/28 10:40:34;;;;;;;;;24.67;21.00;;;;;;;;6306165;22;46342;-61
2023/01/28 10:42:59;;;;;;;;;28.33;23.00;;;;;;;;6307440;22;45343;-61
2023/01/28 10:45:51;;;;;;;;;35.33;26.33;;;;;;;;6308797;22;45259;-61
2023/01/28 10:48:16;;;;;;;;;31.25;25.00;;;;;;;;6301594;22;45242;-61
2023/01/28 10:50:52;;;;;;;;;30.33;24.33;;;;;;;;6308165;22;45943;-61
2023/01/28 10:53:17;;;;;;;;;26.67;20.00;;;;;;;;6307903;22;45337;-61
2023/01/28 10:55:57;;;;;;;;;22.00;19.33;;;;;;;;6305299;22;45636;-61
2023/01/28 10:58:30;;;;;;;;;26.00;24.33;;;;;;;;6308267;22;46096;-61
2023/01/28 11:00:56;;;;;;;;;27.33;20.67;;;;;;;;6317605;22;46063;-61
2023/01/28 11:03:22;;;;;;;;;23.67;20.00;;;;;;;;6339093;22;45342;-61
2023/01/28 11:05:52;;;;;;;;;25.33;21.67;;;;;;;;6340332;22;45346;-62
2023/01/28 11:08:18;;;;;;;;;31.00;27.75;;;;;;;;6339729;22;45364;-61
2023/01/28 11:10:43;;;;;;;;;30.00;22.50;;;;;;;;6336574;22;46141;-65
2023/01/28 11:13:29;;;;;;;;;23.50;19.50;;;;;;;;6335116;22;45404;-62
2023/01/28 11:15:59;;;;;;;;;38.25;27.25;;;;;;;;6337150;22;45351;-60
2023/01/28 11:18:37;;;;;;;;;27.00;23.75;;;;;;;;6338691;22;45682;-60
2023/01/28 11:21:04;;;;;;;;;36.75;26.75;;;;;;;;6337267;22;45270;-61
2023/01/28 11:23:32;;;;;;;;;26.00;24.75;;;;;;;;6335407;22;45463;-60
2023/01/28 11:26:13;;;;;;;;;27.33;23.00;;;;;;;;6338274;22;45258;-60
2023/01/28 11:28:40;;;;;;;;;35.75;23.25;;;;;;;;6338641;22;45299;-61
2023/01/28 11:31:05;;;;;;;;;30.00;23.00;;;;;;;;6337952;22;46950;-60
2023/01/28 11:33:38;;;;;;;;;24.00;21.33;;;;;;;;6339130;22;45373;-60
2023/01/28 11:36:23;;;;;;;;;32.50;24.25;;;;;;;;6336921;22;45360;-61
2023/01/28 11:38:51;;;;;;;;;31.00;23.67;;;;;;;;6338498;22;45423;-62
2023/01/28 11:41:18;;;;;;;;;27.75;24.75;;;;;;;;6338137;22;45924;-60
2023/01/28 11:43:46;;;;;;;;;36.50;30.50;;;;;;;;6338061;22;45464;-60
2023/01/28 11:46:22;;;;;;;;;28.33;26.67;;;;;;;;6337038;22;45365;-59
2023/01/28 11:49:00;;;;;;;;;37.75;24.25;;;;;;;;6337855;22;45397;-60
2023/01/28 11:51:31;;;;;;;;;31.00;26.00;;;;;;;;6339138;22;46225;-59
2023/01/28 11:54:05;;;;;;;;;30.25;27.00;;;;;;;;6338240;22;45402;-58
2023/01/28 11:56:36;;;;;;;;;33.67;29.00;;;;;;;;6338286;22;45430;-59
2023/01/28 11:59:20;;;;;;;;;23.67;20.00;;;;;;;;6337789;22;45339;-59
2023/01/28 12:02:03;;;;;;;;;28.00;24.33;;;;;;;;6338771;22;46072;-59
2023/01/28 12:04:41;;;;;;;;;18.33;10.67;;;;;;;;6338341;22;45401;-59
2023/01/28 12:07:06;;;;;;;;;24.67;21.33;;;;;;;;6337862;22;45241;-59
2023/01/28 12:09:31;;;;;;;;;26.33;24.00;;;;;;;;6338138;22;45458;-60
2023/01/28 12:12:11;;;;;;;;;33.67;23.67;;;;;;;;6338804;22;45351;-65
2023/01/28 12:14:36;;;;;;;;;30.75;22.00;;;;;;;;6339436;22;45361;-60
2023/01/28 12:17:05;;;;;;;;;26.25;21.75;;;;;;;;6338722;22;45359;-59
2023/01/28 12:19:33;;;;;;;;;24.67;20.33;;;;;;;;6340025;22;45411;-60
2023/01/28 12:22:01;;;;;;;;;26.67;20.33;;;;;;;;6338688;22;45481;-61
2023/01/28 12:24:33;;;;;;;;;24.33;21.33;;;;;;;;6337580;22;45447;-61
2023/01/28 12:27:17;;;;;;;;;29.67;23.33;;;;;;;;6338492;22;45248;-60
2023/01/28 12:30:03;;;;;;;;;30.67;23.00;;;;;;;;6338416;22;45586;-59
2023/01/28 12:32:38;;;;;;;;;22.67;19.67;;;;;;;;6338724;22;46136;-59
2023/01/28 12:35:06;;;;;;;;;30.50;21.50;;;;;;;;6334479;22;45377;-59
2023/01/28 12:37:34;;;;;;;;;33.75;26.00;;;;;;;;6341576;22;45308;-59
2023/01/28 12:40:00;;;;;;;;;26.67;20.33;;;;;;;;6338582;22;45290;-59
2023/01/28 12:42:31;;;;;;;;;31.67;23.67;;;;;;;;6338388;22;46265;-60
2023/01/28 12:45:01;;;;;;;;;31.50;24.25;;;;;;;;6336939;22;45382;-60
2023/01/28 12:47:30;;;;;;;;;31.75;24.25;;;;;;;;6339268;22;45621;-61
2023/01/28 12:49:59;;;;;;;;;24.33;23.00;;;;;;;;6337552;22;45304;-59
2023/01/28 12:52:29;;;;;;;;;32.67;24.33;;;;;;;;6337355;22;46289;-59
2023/01/28 12:54:57;;;;;;;;;37.67;29.00;;;;;;;;6337003;22;45377;-59
2023/01/28 12:57:24;;;;;;;;;31.67;26.33;;;;;;;;6338874;22;45358;-59
2023/01/28 12:59:51;;;;;;;;;37.33;25.33;;;;;;;;6337108;22;45383;-60
2023/01/28 13:02:39;;;;;;;;;27.67;25.33;;;;;;;;6337557;22;46290;-60
2023/01/28 13:05:08;;;;;;;;;29.25;26.25;;;;;;;;6338027;22;45364;-60
2023/01/28 13:07:39;;;;;;;;;30.75;25.50;;;;;;;;6337509;22;45344;-60
2023/01/28 13:10:10;;;;;;;;;32.00;20.00;;;;;;;;6338346;22;45452;-60
2023/01/28 13:12:37;;;;;;;;;28.50;26.50;;;;;;;;6338927;22;45329;-60
2023/01/28 13:15:05;;;;;;;;;28.50;23.75;;;;;;;;6337868;22;45325;-59
2023/01/28 13:17:31;;;;;;;;;25.33;20.67;;;;;;;;6336700;22;45325;-60
2023/01/28 13:19:59;;;;;;;;;25.67;21.33;;;;;;;;6336813;22;45444;-59
2023/01/28 13:22:34;;;;;;;;;29.75;19.50;;;;;;;;6337899;22;45346;-60
2023/01/28 13:25:20;;;;;;;;;20.33;18.00;;;;;;;;6336382;22;45193;-60
2023/01/28 13:27:59;;;;;;;;;33.67;26.00;;;;;;;;6338473;22;45389;-60
2023/01/28 13:30:29;;;;;;;;;25.00;18.00;;;;;;;;6338732;22;45389;-59
2023/01/28 13:33:04;;;;;;;;;31.33;24.33;;;;;;;;6338114;22;46084;-59
2023/01/28 13:35:31;;;;;;;;;24.33;19.00;;;;;;;;6335903;22;45446;-60
2023/01/28 13:37:58;;;;;;;;;36.33;24.33;;;;;;;;6337226;22;45349;-60
2023/01/28 13:40:25;;;;;;;;;20.67;19.67;;;;;;;;6338636;22;45385;-60
2023/01/28 13:43:04;;;;;;;;;26.00;22.00;;;;;;;;6338738;22;45718;-59
2023/01/28 13:45:30;;;;;;;;;21.00;18.00;;;;;;;;6337622;22;45262;-60
2023/01/28 13:48:12;;;;;;;;;29.33;24.33;;;;;;;;6338657;22;45316;-60
2023/01/28 13:50:40;;;;;;;;;29.00;21.67;;;;;;;;6338253;22;45355;-59
2023/01/28 13:53:19;;;;;;;;;26.00;22.67;;;;;;;;6338129;22;45321;-59
2023/01/28 13:55:46;;;;;;;;;34.00;23.33;;;;;;;;6337633;22;45389;-60
2023/01/28 13:58:39;;;;;;;;;27.00;24.33;;;;;;;;6310361;22;45366;-60
2023/01/28 14:01:16;;;;;;;;;32.00;28.00;;;;;;;;6338622;22;45298;-60
2023/01/28 14:03:47;;;;;;;;;26.75;22.50;;;;;;;;6338013;22;45340;-60
2023/01/28 14:06:12;;;;;;;;;24.00;22.25;;;;;;;;6336109;22;45395;-60
2023/01/28 14:08:41;;;;;;;;;32.00;25.33;;;;;;;;6338443;22;45535;-60
2023/01/28 14:11:15;;;;;;;;;33.00;25.50;;;;;;;;6338873;22;45582;-59
2023/01/28 14:13:53;;;;;;;;;26.75;23.50;;;;;;;;6338997;22;46113;-59
2023/01/28 14:16:18;;;;;;;;;32.75;24.75;;;;;;;;6339338;22;45356;-59
2023/01/28 14:18:44;;;;;;;;;39.00;29.50;;;;;;;;6340384;22;45346;-60
2023/01/28 14:21:19;;;;;;;;;29.00;23.33;;;;;;;;6339478;22;45349;-60
2023/01/28 14:23:49;;;;;;;;;23.00;22.67;;;;;;;;6337898;22;46006;-60
2023/01/28 14:26:22;;;;;;;;;28.33;21.67;;;;;;;;6339283;22;45240;-60
2023/01/28 14:29:06;;;;;;;;;32.67;27.00;;;;;;;;6339347;22;45169;-60
2023/01/28 14:31:32;;;;;;;;;27.00;23.00;;;;;;;;6337838;22;45679;-60
2023/01/28 14:34:05;;;;;;;;;25.67;25.67;;;;;;;;6339248;22;46002;-59
2023/01/28 14:36:30;;;;;;;;;34.50;29.75;;;;;;;;6338624;22;45322;-60
2023/01/28 14:38:56;;;;;;;;;36.00;31.33;;;;;;;;6331760;22;45266;-61
2023/01/28 14:41:26;;;;;;;;;38.33;32.33;;;;;;;;6338908;22;45376;-61
2023/01/28 14:43:53;;;;;;;;;34.67;29.33;;;;;;;;6338592;22;46399;-60
2023/01/28 14:46:21;;;;;;;;;39.67;30.33;;;;;;;;6338069;22;45638;-61
2023/01/28 14:48:46;;;;;;;;;27.67;24.67;;;;;;;;6337128;22;45556;-61
2023/01/28 14:51:30;;;;;;;;;28.67;25.33;;;;;;;;6337910;22;45706;-61
2023/01/28 14:54:04;;;;;;;;;42.00;20.67;;;;;;;;6308553;22;48016;-61
2023/01/28 14:56:41;;;;;;;;;28.00;23.67;;;;;;;;6338637;22;45283;-61
2023/01/28 14:59:15;;;;;;;;;34.33;29.00;;;;;;;;6338149;22;45302;-60
2023/01/28 15:01:44;;;;;;;;;30.33;24.33;;;;;;;;6339294;22;45231;-60
2023/01/28 15:04:27;;;;;;;;;36.00;25.33;;;;;;;;6338313;22;46243;-60
2023/01/28 15:06:52;;;;;;;;;36.00;33.00;;;;;;;;6337530;22;45328;-60
2023/01/28 15:09:18;;;;;;;;;34.25;26.50;;;;;;;;6338113;22;45374;-62
2023/01/28 15:11:47;;;;;;;;;42.25;32.00;;;;;;;;6339550;22;45478;-62
2023/01/28 15:14:15;;;;;;;;;33.50;32.00;;;;;;;;6339037;22;46427;-60
2023/01/28 15:16:40;;;;;;;;;38.25;30.75;;;;;;;;6339107;22;45448;-61
2023/01/28 15:19:06;;;;;;;;;21.67;18.33;;;;;;;;6337911;22;45585;-62
2023/01/28 15:21:33;;;;;;;;;39.50;32.50;;;;;;;;6338416;22;45458;-61
2023/01/28 15:24:00;;;;;;;;;36.00;31.33;;;;;;;;6337078;22;45450;-61
2023/01/28 15:26:26;;;;;;;;;37.00;27.67;;;;;;;;6338793;22;45541;-61
2023/01/28 15:28:52;;;;;;;;;33.75;23.00;;;;;;;;6337710;22;45340;-61
2023/01/28 15:31:18;;;;;;;;;37.67;25.67;;;;;;;;6338339;22;45306;-60
2023/01/28 15:33:43;;;;;;;;;38.00;30.75;;;;;;;;6339197;22;45377;-60
2023/01/28 15:36:09;;;;;;;;;35.00;31.50;;;;;;;;6336400;22;45422;-61
2023/01/28 15:38:34;;;;;;;;;35.00;30.00;;;;;;;;6337853;22;45520;-62
2023/01/28 15:41:01;;;;;;;;;27.00;21.67;;;;;;;;6335931;22;45463;-61
2023/01/28 15:43:29;;;;;;;;;41.50;31.50;;;;;;;;6338966;22;45310;-62
2023/01/28 15:45:55;;;;;;;;;33.50;26.25;;;;;;;;6336194;22;45562;-61
2023/01/28 15:48:23;;;;;;;;;40.75;29.25;;;;;;;;6338223;22;45350;-60
2023/01/28 15:50:56;;;;;;;;;29.33;21.67;;;;;;;;6337514;22;45346;-62
2023/01/28 15:53:21;;;;;;;;;28.00;24.75;;;;;;;;6337676;22;46375;-62
2023/01/28 15:55:47;;;;;;;;;28.67;26.67;;;;;;;;6338264;22;45610;-62
2023/01/28 15:58:16;;;;;;;;;36.00;26.00;;;;;;;;6336683;22;45385;-61
2023/01/28 16:00:42;;;;;;;;;36.50;29.00;;;;;;;;6336838;22;45242;-62
2023/01/28 16:03:08;;;;;;;;;29.75;25.75;;;;;;;;6336921;22;46150;-61
2023/01/28 16:05:38;;;;;;;;;33.67;29.33;;;;;;;;6336925;22;45673;-62
2023/01/28 16:08:11;;;;;;;;;34.50;28.75;;;;;;;;6335963;22;45301;-63
2023/01/28 16:10:37;;;;;;;;;40.75;31.00;;;;;;;;6337239;22;45666;-62
2023/01/28 16:13:15;;;;;;;;;41.00;28.75;;;;;;;;6336437;22;47342;-63
2023/01/28 16:15:45;;;;;;;;;37.25;30.75;;;;;;;;6339403;22;45703;-62
2023/01/28 16:18:40;;;;;;;;;34.75;25.50;;;;;;;;6336972;22;45614;-63
2023/01/28 16:21:06;;;;;;;;;35.25;28.25;;;;;;;;6310168;22;45636;-63
2023/01/28 16:23:31;;;;;;;;;30.25;26.00;;;;;;;;6336090;22;47316;-63
2023/01/28 16:26:01;;;;;;;;;33.25;28.50;;;;;;;;6332756;22;45747;-63
2023/01/28 16:28:28;;;;;;;;;29.25;26.75;;;;;;;;6338947;22;45365;-63
2023/01/28 16:30:53;;;;;;;;;33.75;29.50;;;;;;;;6336760;22;45741;-62
2023/01/28 16:33:19;;;;;;;;;32.25;26.00;;;;;;;;6338026;22;45305;-62
2023/01/28 16:35:44;;;;;;;;;39.25;30.75;;;;;;;;6339162;22;45481;-62
2023/01/28 16:38:15;;;;;;;;;31.50;25.50;;;;;;;;6336587;22;45226;-62
2023/01/28 16:40:40;;;;;;;;;37.50;29.00;;;;;;;;6336101;22;45337;-64
2023/01/28 16:43:09;;;;;;;;;42.50;26.50;;;;;;;;6337144;22;46469;-62
2023/01/28 16:45:34;;;;;;;;;33.25;26.75;;;;;;;;6337762;22;45358;-62
2023/01/28 16:47:59;;;;;;;;;41.50;33.50;;;;;;;;6332822;22;45491;-62
2023/01/28 16:50:24;;;;;;;;;31.50;27.00;;;;;;;;6336521;22;45231;-62
2023/01/28 16:52:52;;;;;;;;;32.75;30.00;;;;;;;;6338678;22;46018;-63
2023/01/28 16:55:18;;;;;;;;;45.75;35.75;;;;;;;;6337896;22;45404;-63
2023/01/28 16:57:44;;;;;;;;;38.00;30.75;;;;;;;;6337542;22;45448;-62
2023/01/28 17:00:16;;;;;;;;;39.50;34.75;;;;;;;;6337274;22;45313;-62
2023/01/28 17:02:41;;;;;;;;;40.75;37.00;;;;;;;;6338209;22;47384;-63
2023/01/28 17:05:06;;;;;;;;;45.75;37.00;;;;;;;;6337838;22;45392;-63
2023/01/28 17:07:31;;;;;;;;;54.75;40.50;;;;;;;;6339662;22;45192;-62
2023/01/28 17:09:57;;;;;;;;;50.50;35.50;;;;;;;;6337581;22;45421;-63
2023/01/28 17:12:22;;;;;;;;;34.50;30.75;;;;;;;;6338672;22;45466;-62
2023/01/28 17:14:47;;;;;;;;;41.50;35.75;;;;;;;;6337496;22;45389;-62
2023/01/28 17:17:12;;;;;;;;;50.50;36.50;;;;;;;;6338165;22;45289;-62
2023/01/28 17:19:37;;;;;;;;;47.25;38.50;;;;;;;;6337718;22;45313;-60
2023/01/28 17:22:03;;;;;;;;;51.25;38.00;;;;;;;;6337854;22;45295;-61
2023/01/28 17:24:28;;;;;;;;;46.25;35.00;;;;;;;;6338018;22;45305;-61
2023/01/28 17:26:53;;;;;;;;;43.75;36.75;;;;;;;;6338419;22;45361;-61
2023/01/28 17:29:18;;;;;;;;;52.75;34.25;;;;;;;;6338794;22;45345;-61
2023/01/28 17:31:44;;;;;;;;;45.25;36.00;;;;;;;;6338778;22;45318;-61
2023/01/28 17:34:11;;;;;;;;;49.25;40.25;;;;;;;;6337451;22;45494;-61
2023/01/28 17:36:36;;;;;;;;;60.00;45.25;;;;;;;;6336553;22;45534;-61
2023/01/28 17:39:02;;;;;;;;;46.50;35.50;;;;;;;;6337347;22;45429;-61
2023/01/28 17:41:27;;;;;;;;;52.00;41.00;;;;;;;;6336432;22;47112;-62
2023/01/28 17:43:53;;;;;;;;;45.50;39.00;;;;;;;;6310997;22;45515;-61
2023/01/28 17:46:20;;;;;;;;;43.00;35.75;;;;;;;;6338451;22;45584;-65
2023/01/28 17:48:45;;;;;;;;;45.75;34.75;;;;;;;;6311340;22;45502;-63
2023/01/28 17:51:11;;;;;;;;;39.75;34.75;;;;;;;;6335573;22;46367;-65
2023/01/28 17:53:37;;;;;;;;;41.50;35.75;;;;;;;;6338919;22;45390;-65
2023/01/28 17:56:02;;;;;;;;;52.75;38.75;;;;;;;;6339499;22;45346;-65
2023/01/28 17:58:28;;;;;;;;;54.00;41.50;;;;;;;;6339591;22;45325;-65
2023/01/28 18:00:53;;;;;;;;;44.50;39.00;;;;;;;;6338116;22;46182;-65
2023/01/28 18:03:18;;;;;;;;;44.00;36.00;;;;;;;;6338984;22;45332;-65
2023/01/28 18:05:43;;;;;;;;;47.00;37.50;;;;;;;;6339693;22;45505;-65
2023/01/28 18:08:09;;;;;;;;;39.00;35.75;;;;;;;;6337890;22;45653;-64
2023/01/28 18:10:34;;;;;;;;;42.25;35.75;;;;;;;;6337522;22;46176;-63
2023/01/28 18:12:59;;;;;;;;;39.75;34.50;;;;;;;;6333791;22;45267;-63
2023/01/28 18:15:25;;;;;;;;;37.00;32.50;;;;;;;;6338985;22;45388;-63
2023/01/28 18:17:50;;;;;;;;;52.00;39.75;;;;;;;;6338090;22;45802;-63
2023/01/28 18:20:16;;;;;;;;;46.75;36.75;;;;;;;;6337348;22;46023;-63
2023/01/28 18:22:41;;;;;;;;;44.75;36.50;;;;;;;;6338560;22;45313;-64
2023/01/28 18:25:07;;;;;;;;;45.00;40.00;;;;;;;;6337132;22;45233;-62
2023/01/28 18:27:32;;;;;;;;;52.25;38.00;;;;;;;;6336732;22;45357;-62
2023/01/28 18:29:57;;;;;;;;;48.75;38.75;;;;;;;;6338081;22;45643;-63
2023/01/28 18:32:22;;;;;;;;;48.25;34.75;;;;;;;;6338616;22;45319;-63
2023/01/28 18:34:48;;;;;;;;;45.50;38.25;;;;;;;;6337245;22;45250;-63
2023/01/28 18:37:13;;;;;;;;;41.25;35.25;;;;;;;;6336560;22;45383;-63
2023/01/28 18:39:39;;;;;;;;;40.00;36.00;;;;;;;;6334443;22;45978;-63
2023/01/28 18:42:04;;;;;;;;;45.25;39.75;;;;;;;;6336531;22;45323;-62
2023/01/28 18:44:30;;;;;;;;;46.25;38.00;;;;;;;;6339263;22;45299;-63
2023/01/28 18:46:56;;;;;;;;;40.00;33.25;;;;;;;;6337349;22;45303;-63
2023/01/28 18:49:21;;;;;;;;;45.00;35.75;;;;;;;;6339203;22;45385;-63
2023/01/28 18:51:46;;;;;;;;;42.25;34.00;;;;;;;;6337344;22;45425;-63
2023/01/28 18:54:12;;;;;;;;;40.25;34.75;;;;;;;;6336178;22;45339;-63
2023/01/28 18:56:38;;;;;;;;;43.00;33.50;;;;;;;;6337742;22;45852;-63
2023/01/28 18:59:04;;;;;;;;;42.50;31.00;;;;;;;;6334248;22;47029;-63
2023/01/28 19:01:30;;;;;;;;;37.25;32.50;;;;;;;;6336399;22;45495;-63
2023/01/28 19:03:56;;;;;;;;;37.75;34.50;;;;;;;;6336364;22;45490;-63
2023/01/28 19:06:22;;;;;;;;;51.50;32.75;;;;;;;;6335681;22;45580;-64
2023/01/28 19:08:55;;;;;;;;;40.75;34.75;;;;;;;;6336091;22;45986;-61
2023/01/28 19:11:21;;;;;;;;;50.25;39.50;;;;;;;;6335366;22;45292;-61
2023/01/28 19:13:46;;;;;;;;;42.75;36.00;;;;;;;;6337895;22;45316;-64
2023/01/28 19:16:11;;;;;;;;;38.50;35.75;;;;;;;;6337891;22;45259;-64
2023/01/28 19:18:36;;;;;;;;;40.75;29.00;;;;;;;;6335905;22;47063;-63
2023/01/28 19:21:03;;;;;;;;;40.00;36.25;;;;;;;;6336028;22;45122;-65
2023/01/28 19:23:28;;;;;;;;;36.75;28.25;;;;;;;;6335614;22;45284;-62
2023/01/28 19:25:53;;;;;;;;;32.00;27.25;;;;;;;;6337407;22;45239;-63
2023/01/28 19:28:18;;;;;;;;;38.00;28.25;;;;;;;;6338805;22;47013;-62
2023/01/28 19:30:44;;;;;;;;;34.50;29.25;;;;;;;;6339570;22;45429;-63
2023/01/28 19:33:09;;;;;;;;;51.25;35.00;;;;;;;;6338993;22;45219;-63
2023/01/28 19:35:35;;;;;;;;;35.50;33.75;;;;;;;;6340295;22;45201;-63
2023/01/28 19:38:00;;;;;;;;;34.75;32.75;;;;;;;;6339083;22;46900;-64
2023/01/28 19:40:25;;;;;;;;;40.75;34.00;;;;;;;;6339400;22;45532;-63
2023/01/28 19:42:51;;;;;;;;;32.50;30.75;;;;;;;;6337516;22;45626;-63
2023/01/28 19:45:17;;;;;;;;;38.00;29.50;;;;;;;;6335963;22;45336;-64
2023/01/28 19:47:42;;;;;;;;;37.25;27.75;;;;;;;;6339577;22;45460;-63
2023/01/28 19:50:07;;;;;;;;;34.75;30.25;;;;;;;;6338372;22;45227;-62
2023/01/28 19:52:32;;;;;;;;;37.00;30.50;;;;;;;;6340114;22;45310;-63
2023/01/28 19:54:58;;;;;;;;;33.00;29.00;;;;;;;;6339445;22;45310;-61
2023/01/28 19:57:23;;;;;;;;;33.75;29.00;;;;;;;;6339531;22;45392;-62
2023/01/28 19:59:48;;;;;;;;;45.00;29.00;;;;;;;;6339387;22;45329;-62
2023/01/28 20:02:13;;;;;;;;;33.25;26.50;;;;;;;;6338436;22;45357;-62
2023/01/28 20:04:38;;;;;;;;;24.00;23.00;;;;;;;;6339051;22;45210;-62
2023/01/28 20:07:04;;;;;;;;;35.25;26.25;;;;;;;;6338730;22;45352;-62
2023/01/28 20:09:29;;;;;;;;;30.50;28.00;;;;;;;;6339391;22;45331;-62
2023/01/28 20:11:54;;;;;;;;;35.25;30.75;;;;;;;;6339510;22;45243;-62
2023/01/28 20:14:20;;;;;;;;;39.25;31.25;;;;;;;;6339712;22;45293;-61
2023/01/28 20:16:45;;;;;;;;;28.25;26.50;;;;;;;;6338973;22;46080;-62
2023/01/28 20:19:15;;;;;;;;;35.75;29.00;;;;;;;;6337250;22;45323;-62
2023/01/28 20:21:40;;;;;;;;;28.00;26.50;;;;;;;;6339103;22;45227;-62
2023/01/28 20:24:06;;;;;;;;;39.50;34.25;;;;;;;;6338998;22;45553;-62
2023/01/28 20:26:35;;;;;;;;;40.50;32.25;;;;;;;;6338170;22;45972;-62
2023/01/28 20:29:02;;;;;;;;;35.00;25.00;;;;;;;;6336608;22;45791;-62
2023/01/28 20:31:27;;;;;;;;;36.75;30.50;;;;;;;;6338757;22;45293;-62
2023/01/28 20:33:52;;;;;;;;;28.75;28.75;;;;;;;;6337459;22;45266;-61
2023/01/28 20:36:18;;;;;;;;;37.75;29.75;;;;;;;;6338774;22;46166;-62
2023/01/28 20:38:46;;;;;;;;;34.25;27.50;;;;;;;;6337750;22;45502;-62
2023/01/28 20:41:21;;;;;;;;;28.00;25.00;;;;;;;;6338767;22;45239;-62
2023/01/28 20:43:47;;;;;;;;;33.50;28.00;;;;;;;;6338142;22;45325;-62
2023/01/28 20:46:13;;;;;;;;;37.50;32.75;;;;;;;;6338151;22;46561;-61
2023/01/28 20:48:39;;;;;;;;;30.25;29.00;;;;;;;;6337661;22;45301;-62
2023/01/28 20:51:08;;;;;;;;;43.50;36.00;;;;;;;;6338620;22;45587;-62
2023/01/28 20:53:33;;;;;;;;;36.25;28.75;;;;;;;;6338556;22;45213;-62
2023/01/28 20:55:59;;;;;;;;;45.25;36.25;;;;;;;;6337423;22;46261;-62
2023/01/28 20:58:25;;;;;;;;;40.25;33.00;;;;;;;;6337910;22;45302;-62
2023/01/28 21:00:50;;;;;;;;;38.00;33.25;;;;;;;;6337720;22;45270;-61
2023/01/28 21:03:15;;;;;;;;;38.50;32.50;;;;;;;;6338048;22;45215;-62
2023/01/28 21:05:43;;;;;;;;;46.75;36.00;;;;;;;;6337688;22;45334;-63
2023/01/28 21:08:08;;;;;;;;;44.75;36.50;;;;;;;;6338611;22;45293;-62
2023/01/28 21:10:34;;;;;;;;;34.75;28.75;;;;;;;;6338357;22;45286;-62
2023/01/28 21:12:59;;;;;;;;;34.00;30.25;;;;;;;;6338928;22;45244;-62
2023/01/28 21:15:25;;;;;;;;;28.50;19.00;;;;;;;;6338696;22;45377;-63
2023/01/28 21:17:50;;;;;;;;;34.00;31.50;;;;;;;;6337693;22;45306;-62
2023/01/28 21:20:15;;;;;;;;;41.50;34.00;;;;;;;;6339155;22;45260;-62